Nearby METAR Reports

 

EGKA - Shoreham-By-Sea, United Kingdom
Distance from station: SW 9mi, 14km
Updated: Wed, 21-Aug-2019 7:50pm BST
NOT Current
Clear
Clear
 Wind from SW
Wind: SW 9 mph , 15 km/h
Temperature: 16°C
Dew Point: 12°C
Humidity: 77%
Barometer: 1025 hPa
Summary: Clear
Visibility: greater than 7 miles , 10 km
2019/08/21 18:50 EGKA 211850Z 22008KT CAVOK 16/12 Q1025
EGKK - London/Gatwick A, United Kingdom
Distance from station: N 14mi, 22km
Updated: Thu, 22-Aug-2019 2:20am BST
Clear
Clear
 Wind from SSW
Wind: SSW 5 mph , 7 km/h
Temperature: 12°C
Dew Point: 11°C
Humidity: 94%
Barometer: 1025 hPa
Summary: Clear
Visibility: greater than 7 miles , 10 km
2019/08/22 01:20 EGKK 220120Z 21004KT CAVOK 12/11 Q1025
 
EGKB - Biggin Hill, United Kingdom
Distance from station: NNE 28mi, 44km
Updated: Wed, 21-Aug-2019 10:20pm BST
NOT Current
Clear
Clear
 Wind from SSW
Wind: SSW 9 mph , 15 km/h
Temperature: 13°C
Dew Point: 11°C
Humidity: 88%
Barometer: 1026 hPa
Summary: Clear
Visibility: greater than 7 miles , 10 km
2019/08/21 21:20 EGKB 212120Z 20008KT CAVOK 13/11 Q1026
EGLF - Farnborough, United Kingdom
Distance from station: NW 35mi, 56km
Updated: Thu, 22-Aug-2019 2:20am BST
Clear
Clear
 Wind from SW
Wind: SW 7 mph , 11 km/h
Temperature: 12°C
Dew Point: 11°C
Humidity: 94%
Barometer: 1025 hPa
Clouds: Clear
Visibility: 6 miles , 10 km
2019/08/22 01:20 EGLF 220120Z AUTO 22006KT 9999 NCD 12/11 Q1025
 
EGMD - Lydd Airport, United Kingdom
Distance from station: E 48mi, 77km
Updated: Thu, 22-Aug-2019 2:20am BST
Clear
Clear
 Wind from W
Wind: W 5 mph , 7 km/h
Temperature: 10°C
Wind Chill: 9°C
Dew Point: 8°C
Humidity: 88%
Barometer: 1025 hPa
Clouds: Clear
Visibility: 6 miles , 10 km
2019/08/22 01:20 EGMD 220120Z AUTO 27004KT 9999 NCD 10/08 Q1025
EGHI - Southampton Wx C, United Kingdom
Distance from station: W 50mi, 82km
Updated: Wed, 21-Aug-2019 10:50pm BST
NOT Current
Clear
Clear
 Wind from calm
Wind: Calm
Temperature: 14°C
Dew Point: 12°C
Humidity: 88%
Barometer: 1026 hPa
Summary: Clear
Visibility: greater than 7 miles , 10 km
2019/08/21 21:50 EGHI 212150Z 00000KT CAVOK 14/12 Q1026

Metar display script from Saratoga-Weather.org